createdAt,value
2023-03-12T00:01:55.162Z,5.18
2023-03-12T00:04:29.589Z,4.38
2023-03-12T00:07:06.603Z,11.48
2023-03-12T00:09:40.049Z,6.00
2023-03-12T00:12:12.447Z,4.17
2023-03-12T00:14:45.514Z,7.68
2023-03-12T00:17:18.294Z,4.95
2023-03-12T00:19:54.086Z,6.28
2023-03-12T00:22:26.544Z,7.55
2023-03-12T00:24:59.532Z,7.57
2023-03-12T00:27:31.917Z,6.63
2023-03-12T00:30:06.393Z,6.05
2023-03-12T00:32:39.344Z,7.68
2023-03-12T00:35:13.844Z,10.43
2023-03-12T00:37:46.301Z,12.07
2023-03-12T00:40:19.340Z,7.90
2023-03-12T00:42:51.851Z,6.13
2023-03-12T00:45:24.731Z,6.18
2023-03-12T00:47:57.578Z,12.05
2023-03-12T00:50:31.948Z,6.40
2023-03-12T00:53:04.810Z,7.80
2023-03-12T00:55:37.376Z,8.93
2023-03-12T00:58:10.631Z,9.65
2023-03-12T01:00:43.111Z,10.90
2023-03-12T01:03:16.024Z,6.13
2023-03-12T01:05:54.113Z,20.15
2023-03-12T01:08:27.235Z,8.73
2023-03-12T01:11:00.464Z,11.63
2023-03-12T01:13:33.885Z,9.75
2023-03-12T01:16:07.328Z,8.87
2023-03-12T01:18:40.458Z,13.63
2023-03-12T01:21:14.779Z,10.50
2023-03-12T01:23:47.880Z,7.60
2023-03-12T01:26:20.428Z,7.57
2023-03-12T01:28:53.457Z,10.73
2023-03-12T01:31:25.944Z,9.45
2023-03-12T01:33:59.020Z,14.27
2023-03-12T01:36:33.306Z,8.57
2023-03-12T01:39:06.468Z,14.52
2023-03-12T01:41:38.911Z,10.13
2023-03-12T01:44:15.128Z,9.73
2023-03-12T01:46:48.427Z,11.25
2023-03-12T01:49:32.089Z,11.75
2023-03-12T01:52:09.209Z,10.98
2023-03-12T01:54:58.583Z,9.97
2023-03-12T01:57:36.413Z,14.60
2023-03-12T02:00:14.307Z,12.15
2023-03-12T02:02:49.704Z,10.07
2023-03-12T02:05:30.408Z,10.90
2023-03-12T02:08:05.202Z,10.77
2023-03-12T02:10:38.009Z,14.48
2023-03-12T02:13:11.856Z,12.80
2023-03-12T02:15:49.346Z,13.02
2023-03-12T02:18:22.012Z,13.73
2023-03-12T02:21:01.537Z,14.87
2023-03-12T02:23:42.089Z,14.70
2023-03-12T02:26:17.737Z,13.15
2023-03-12T02:28:52.161Z,13.85
2023-03-12T02:31:30.860Z,12.80
2023-03-12T02:34:04.588Z,7.50
2023-03-12T02:36:37.079Z,10.40
2023-03-12T02:39:12.098Z,8.85
2023-03-12T02:41:50.946Z,15.10
2023-03-12T02:44:27.089Z,11.90
2023-03-12T02:47:01.199Z,9.37
2023-03-12T02:49:35.319Z,8.32
2023-03-12T02:52:09.929Z,7.55
2023-03-12T02:54:43.687Z,10.70
2023-03-12T02:57:18.385Z,8.48
2023-03-12T02:59:51.509Z,11.33
2023-03-12T03:02:24.491Z,7.57
2023-03-12T03:04:57.343Z,6.00
2023-03-12T03:07:30.144Z,9.25
2023-03-12T03:10:05.035Z,8.02
2023-03-12T03:12:40.476Z,10.53
2023-03-12T03:15:13.591Z,8.35
2023-03-12T03:17:46.524Z,8.18
2023-03-12T03:20:20.100Z,8.43
2023-03-12T03:22:52.961Z,9.18
2023-03-12T03:25:26.074Z,7.53
2023-03-12T03:28:00.555Z,6.50
2023-03-12T03:30:33.015Z,5.47
2023-03-12T03:33:06.646Z,7.95
2023-03-12T03:35:40.335Z,6.95
2023-03-12T03:38:13.212Z,8.77
2023-03-12T03:40:46.434Z,10.80
2023-03-12T03:43:22.219Z,8.05
2023-03-12T03:45:58.272Z,7.13
2023-03-12T03:48:30.789Z,12.93
2023-03-12T03:51:05.533Z,7.43
2023-03-12T03:53:40.338Z,7.50
2023-03-12T03:56:15.513Z,8.48
2023-03-12T03:58:56.020Z,6.35
2023-03-12T04:01:29.304Z,7.78
2023-03-12T04:04:02.952Z,4.67
2023-03-12T04:06:37.876Z,7.93
2023-03-12T04:09:11.336Z,5.53
2023-03-12T04:11:45.295Z,6.10
2023-03-12T04:14:20.812Z,6.63
2023-03-12T04:16:53.374Z,5.80
2023-03-12T04:19:26.428Z,3.72
2023-03-12T04:21:59.216Z,6.00
2023-03-12T04:24:32.267Z,6.60
2023-03-12T04:27:05.638Z,4.18
2023-03-12T04:29:42.530Z,5.07
2023-03-12T04:32:15.389Z,7.22
2023-03-12T04:34:49.073Z,8.52
2023-03-12T04:37:23.534Z,7.15
2023-03-12T04:39:56.297Z,6.75
2023-03-12T04:42:29.368Z,7.70
2023-03-12T04:45:03.903Z,6.72
2023-03-12T04:47:37.196Z,5.15
2023-03-12T04:50:13.045Z,5.85
2023-03-12T04:52:46.206Z,5.88
2023-03-12T04:55:18.838Z,4.50
2023-03-12T04:57:51.837Z,3.97
2023-03-12T05:00:27.200Z,4.45
2023-03-12T05:03:00.255Z,6.18
2023-03-12T05:05:33.130Z,7.97
2023-03-12T05:08:06.338Z,9.47
2023-03-12T05:10:41.761Z,9.60
2023-03-12T05:13:19.572Z,4.88
2023-03-12T05:15:54.412Z,5.32
2023-03-12T05:18:28.011Z,6.03
2023-03-12T05:21:01.874Z,5.57
2023-03-12T05:23:35.653Z,4.75
2023-03-12T05:26:15.781Z,4.38
2023-03-12T05:28:48.931Z,5.53
2023-03-12T05:31:24.609Z,7.75
2023-03-12T05:33:57.508Z,5.43
2023-03-12T05:36:30.041Z,4.47
2023-03-12T05:39:04.186Z,5.72
2023-03-12T05:41:38.868Z,4.72
2023-03-12T05:44:23.436Z,5.55
2023-03-12T05:47:00.305Z,5.07
2023-03-12T05:49:33.441Z,3.78
2023-03-12T05:52:06.793Z,5.40
2023-03-12T05:54:39.463Z,5.82
2023-03-12T05:57:12.223Z,4.88
2023-03-12T05:59:45.474Z,3.90
2023-03-12T06:02:20.362Z,3.75
2023-03-12T06:04:54.208Z,3.70
2023-03-12T06:07:27.233Z,3.42
2023-03-12T06:10:00.477Z,6.20
2023-03-12T06:12:33.807Z,5.73
2023-03-12T06:15:08.063Z,8.90
2023-03-12T06:17:42.326Z,6.40
2023-03-12T06:20:16.797Z,6.38
2023-03-12T06:22:49.990Z,5.60
2023-03-12T06:25:22.712Z,4.10
2023-03-12T06:27:55.409Z,4.40
2023-03-12T06:30:28.417Z,2.92
2023-03-12T06:33:04.927Z,5.80
2023-03-12T06:35:38.016Z,4.18
2023-03-12T06:38:10.474Z,4.50
2023-03-12T06:40:43.797Z,4.05
2023-03-12T06:43:16.306Z,5.22
2023-03-12T06:45:49.406Z,4.68
2023-03-12T06:48:23.823Z,8.13
2023-03-12T06:50:57.081Z,3.10
2023-03-12T06:53:29.747Z,3.35
2023-03-12T06:56:03.588Z,4.18
2023-03-12T06:58:36.082Z,5.53
2023-03-12T07:01:09.541Z,4.22
2023-03-12T07:03:43.605Z,3.83
2023-03-12T07:06:18.417Z,3.80
2023-03-12T07:08:51.479Z,3.72
2023-03-12T07:11:24.560Z,3.10
2023-03-12T07:13:57.499Z,4.32
2023-03-12T07:16:31.649Z,3.97
2023-03-12T07:19:05.494Z,3.72
2023-03-12T07:21:38.277Z,6.28
2023-03-12T07:24:11.162Z,4.47
2023-03-12T07:26:44.503Z,3.67
2023-03-12T07:29:17.086Z,5.57
2023-03-12T07:31:49.904Z,4.65
2023-03-12T07:34:24.306Z,3.47
2023-03-12T07:36:57.284Z,3.45
2023-03-12T07:39:29.679Z,2.95
2023-03-12T07:42:03.134Z,3.17
2023-03-12T07:44:38.199Z,3.58
2023-03-12T07:47:23.100Z,5.25
2023-03-12T07:49:58.009Z,6.18
2023-03-12T07:52:30.952Z,4.03
2023-03-12T07:55:04.559Z,5.30
2023-03-12T07:57:37.463Z,4.30
2023-03-12T08:00:11.612Z,3.75
2023-03-12T08:02:45.055Z,2.63
2023-03-12T08:05:20.350Z,15.18
2023-03-12T08:07:54.005Z,4.90
2023-03-12T08:10:27.147Z,2.45
2023-03-12T08:13:00.116Z,2.13
2023-03-12T08:15:34.378Z,3.15
2023-03-12T08:18:07.416Z,4.30
2023-03-12T08:20:41.555Z,1.90
2023-03-12T08:23:14.579Z,3.40
2023-03-12T08:25:47.455Z,4.10
2023-03-12T08:28:22.004Z,3.28
2023-03-12T08:30:58.890Z,4.75
2023-03-12T08:33:31.733Z,3.43
2023-03-12T08:36:06.507Z,4.25
2023-03-12T08:38:39.715Z,4.65
2023-03-12T08:41:12.462Z,4.03
2023-03-12T08:43:45.931Z,3.95
2023-03-12T08:46:18.958Z,4.00
2023-03-12T08:48:52.203Z,7.13
2023-03-12T08:51:25.965Z,62.58
2023-03-12T08:53:58.990Z,4.97
2023-03-12T08:56:31.985Z,2.88
2023-03-12T08:59:05.232Z,5.07
2023-03-12T09:01:38.162Z,2.90
2023-03-12T09:04:11.520Z,3.22
2023-03-12T09:06:45.411Z,1.58
2023-03-12T09:09:18.588Z,1.52
2023-03-12T09:11:51.073Z,1.33
2023-03-12T09:17:20.622Z,0.88
2023-03-12T09:19:57.566Z,0.82
2023-03-12T09:22:43.597Z,0.90
2023-03-12T09:25:17.902Z,0.57
2023-03-12T09:27:52.826Z,0.98
2023-03-12T09:30:27.269Z,0.82
2023-03-12T09:33:00.285Z,0.82
2023-03-12T09:35:33.088Z,0.50
2023-03-12T09:38:07.909Z,0.80
2023-03-12T09:40:46.890Z,4.63
2023-03-12T09:43:25.857Z,0.75
2023-03-12T09:46:00.588Z,0.30
2023-03-12T09:48:35.279Z,0.40
2023-03-12T09:51:15.377Z,0.43
2023-03-12T09:53:53.361Z,0.30
2023-03-12T09:56:27.253Z,0.25
2023-03-12T09:59:01.254Z,0.30
2023-03-12T10:01:39.022Z,0.30
2023-03-12T10:04:58.069Z,0.53
2023-03-12T10:07:36.130Z,0.20
2023-03-12T10:10:31.233Z,0.20
2023-03-12T10:13:17.664Z,0.20
2023-03-12T10:16:04.781Z,0.30
2023-03-12T10:19:03.481Z,0.20
2023-03-12T10:21:44.924Z,0.22
2023-03-12T10:24:31.737Z,0.15
2023-03-12T10:27:16.373Z,0.30
2023-03-12T10:29:53.846Z,0.20
2023-03-12T10:32:37.980Z,0.40
2023-03-12T10:35:16.382Z,0.15
2023-03-12T10:37:52.998Z,0.20
2023-03-12T10:40:28.293Z,0.20
2023-03-12T10:43:04.056Z,0.30
2023-03-12T10:45:43.967Z,0.60
2023-03-12T10:48:21.542Z,0.35
2023-03-12T10:51:03.520Z,0.30
2023-03-12T10:53:38.413Z,0.50
2023-03-12T10:56:13.885Z,0.30
2023-03-12T10:58:50.661Z,0.83
2023-03-12T11:01:26.042Z,0.50
2023-03-12T11:04:13.788Z,0.40
2023-03-12T11:07:15.828Z,0.20
2023-03-12T11:10:14.178Z,0.98
2023-03-12T11:13:03.380Z,0.87
2023-03-12T11:15:42.396Z,0.60
2023-03-12T11:18:22.254Z,0.68
2023-03-12T11:20:57.214Z,0.52
2023-03-12T11:23:31.179Z,0.40
2023-03-12T11:26:11.520Z,1.93
2023-03-12T11:28:48.601Z,2.55
2023-03-12T11:31:29.556Z,1.15
2023-03-12T11:34:06.961Z,0.65
2023-03-12T11:36:47.664Z,0.52
2023-03-12T11:39:27.278Z,0.20
2023-03-12T11:42:11.077Z,0.68
2023-03-12T11:44:53.517Z,0.57
2023-03-12T11:47:44.699Z,1.63
2023-03-12T11:50:27.803Z,0.90
2023-03-12T11:53:26.262Z,0.53
2023-03-12T11:56:22.506Z,0.70
2023-03-12T11:59:07.011Z,0.60
2023-03-12T12:01:54.034Z,0.65
2023-03-12T12:04:58.967Z,0.52
2023-03-12T12:07:48.814Z,0.20
2023-03-12T12:10:28.990Z,0.40
2023-03-12T12:13:12.017Z,0.45
2023-03-12T12:15:56.161Z,0.50
2023-03-12T12:18:42.966Z,0.50
2023-03-12T12:21:31.208Z,0.13
2023-03-12T12:24:18.341Z,0.40
2023-03-12T12:26:59.104Z,0.65
2023-03-12T12:29:55.490Z,0.50
2023-03-12T12:32:39.691Z,0.57
2023-03-12T12:35:25.180Z,0.37
2023-03-12T12:38:05.553Z,0.30
2023-03-12T12:40:42.654Z,0.30
2023-03-12T12:43:28.650Z,1.75
2023-03-12T12:46:04.406Z,4.30
2023-03-12T12:48:40.618Z,6.77
2023-03-12T12:51:16.405Z,0.77
2023-03-12T12:53:57.483Z,0.40
2023-03-12T12:56:34.116Z,0.70
2023-03-12T12:59:23.384Z,0.30
2023-03-12T13:01:57.583Z,0.30
2023-03-12T13:04:34.333Z,1.48
2023-03-12T13:07:34.411Z,1.73
2023-03-12T13:10:48.772Z,1.33
2023-03-12T13:13:31.125Z,0.47
2023-03-12T13:16:19.864Z,0.50
2023-03-12T13:19:00.020Z,0.40
2023-03-12T13:21:39.797Z,0.32
2023-03-12T13:24:22.115Z,0.43
2023-03-12T13:27:04.654Z,0.22
2023-03-12T13:29:40.806Z,0.13
2023-03-12T13:32:38.248Z,0.28
2023-03-12T13:35:30.632Z,0.30
2023-03-12T13:38:05.929Z,0.20
2023-03-12T13:41:05.059Z,0.50
2023-03-12T13:43:56.943Z,0.83
2023-03-12T13:46:45.986Z,0.88
2023-03-12T13:49:20.607Z,0.80
2023-03-12T13:52:01.036Z,0.73
2023-03-12T13:54:35.271Z,0.95
2023-03-12T13:57:13.508Z,0.50
2023-03-12T13:59:50.775Z,0.40
2023-03-12T14:02:27.352Z,0.40
2023-03-12T14:05:06.994Z,0.32
2023-03-12T14:07:58.078Z,0.38
2023-03-12T14:10:43.869Z,1.03
2023-03-12T14:13:29.182Z,0.50
2023-03-12T14:16:09.923Z,0.40
2023-03-12T14:18:45.510Z,0.68
2023-03-12T14:21:20.396Z,0.40
2023-03-12T14:23:57.588Z,0.63
2023-03-12T14:26:34.454Z,0.30
2023-03-12T14:29:15.212Z,0.50
2023-03-12T14:31:50.655Z,0.43
2023-03-12T14:34:26.471Z,0.63
2023-03-12T14:37:04.137Z,0.33
2023-03-12T14:39:46.015Z,0.30
2023-03-12T14:42:26.326Z,0.63
2023-03-12T14:45:00.487Z,1.25
2023-03-12T14:47:42.422Z,0.43
2023-03-12T14:50:19.947Z,0.80
2023-03-12T14:52:53.941Z,0.47
2023-03-12T14:55:27.255Z,0.55
2023-03-12T14:58:13.520Z,0.40
2023-03-12T15:00:54.914Z,0.50
2023-03-12T15:03:31.616Z,0.43
2023-03-12T15:06:04.285Z,0.63
2023-03-12T15:08:43.196Z,0.43
2023-03-12T15:11:22.437Z,0.50
2023-03-12T15:14:01.780Z,0.70
2023-03-12T15:16:35.333Z,0.40
2023-03-12T15:19:13.527Z,1.15
2023-03-12T15:21:46.818Z,1.20
2023-03-12T15:24:20.492Z,0.40
2023-03-12T15:26:53.258Z,0.32
2023-03-12T15:29:28.408Z,0.50
2023-03-12T15:32:03.625Z,0.45
2023-03-12T15:34:39.531Z,0.25
2023-03-12T15:37:23.686Z,1.73
2023-03-12T15:39:57.197Z,0.77
2023-03-12T15:42:36.686Z,0.47
2023-03-12T15:45:20.150Z,0.20
2023-03-12T15:47:54.502Z,0.30
2023-03-12T15:50:32.806Z,0.32
2023-03-12T15:53:26.051Z,0.60
2023-03-12T15:56:03.853Z,0.33
2023-03-12T15:58:38.366Z,0.80
2023-03-12T16:01:12.614Z,1.23
2023-03-12T16:03:46.498Z,0.63
2023-03-12T16:06:23.552Z,0.38
2023-03-12T16:09:18.944Z,1.60
2023-03-12T16:11:52.401Z,1.80
2023-03-12T16:14:29.421Z,0.40
2023-03-12T16:17:02.952Z,0.98
2023-03-12T16:19:36.278Z,0.98
2023-03-12T16:22:10.568Z,0.80
2023-03-12T16:24:44.048Z,0.32
2023-03-12T16:27:23.680Z,0.35
2023-03-12T16:30:06.933Z,0.55
2023-03-12T16:32:39.531Z,0.52
2023-03-12T16:35:14.773Z,0.40
2023-03-12T16:37:49.193Z,0.68
2023-03-12T16:40:32.957Z,0.90
2023-03-12T16:43:11.241Z,0.85
2023-03-12T16:45:47.360Z,0.73
2023-03-12T16:48:24.596Z,3.20
2023-03-12T16:51:00.317Z,1.38
2023-03-12T16:53:35.670Z,0.75
2023-03-12T16:56:16.738Z,1.73
2023-03-12T16:58:50.238Z,1.67
2023-03-12T17:01:27.056Z,2.13
2023-03-12T17:04:00.089Z,0.68
2023-03-12T17:06:33.166Z,0.77
2023-03-12T17:09:08.718Z,0.70
2023-03-12T17:11:41.883Z,0.95
2023-03-12T17:14:18.418Z,1.80
2023-03-12T17:16:51.333Z,3.08
2023-03-12T17:19:24.523Z,1.08
2023-03-12T17:21:57.710Z,0.88
2023-03-12T17:24:31.780Z,2.65
2023-03-12T17:27:04.339Z,0.70
2023-03-12T17:29:47.342Z,2.72
2023-03-12T17:32:23.278Z,0.10
2023-03-12T17:34:56.911Z,2.05
2023-03-12T17:37:30.064Z,0.95
2023-03-12T17:40:11.161Z,0.40
2023-03-12T17:42:45.316Z,1.25
2023-03-12T17:45:17.906Z,1.40
2023-03-12T17:47:51.196Z,0.65
2023-03-12T17:50:23.974Z,1.27
2023-03-12T17:52:57.108Z,7.47
2023-03-12T17:55:31.587Z,2.85
2023-03-12T17:58:06.247Z,1.00
2023-03-12T18:00:39.158Z,0.60
2023-03-12T18:03:12.057Z,1.10
2023-03-12T18:05:44.900Z,0.97
2023-03-12T18:08:17.998Z,0.25
2023-03-12T18:10:52.096Z,2.47
2023-03-12T18:13:25.368Z,0.75
2023-03-12T18:15:59.537Z,0.30
2023-03-12T18:18:32.568Z,0.33
2023-03-12T18:21:05.798Z,0.40
2023-03-12T18:23:38.765Z,3.00
2023-03-12T18:26:12.685Z,1.63
2023-03-12T18:28:45.594Z,0.43
2023-03-12T18:31:18.556Z,1.53
2023-03-12T18:33:51.774Z,1.25
2023-03-12T18:36:24.807Z,0.50
2023-03-12T18:38:59.804Z,0.95
2023-03-12T18:41:33.890Z,0.20
2023-03-12T18:44:07.210Z,0.20
2023-03-12T18:46:40.038Z,0.30
2023-03-12T18:49:13.478Z,0.25
2023-03-12T18:51:46.622Z,0.25
2023-03-12T18:54:20.128Z,0.38
2023-03-12T18:56:54.923Z,0.87
2023-03-12T18:59:27.638Z,0.32
2023-03-12T19:02:00.891Z,0.47
2023-03-12T19:04:34.152Z,0.60
2023-03-12T19:07:08.222Z,0.43
2023-03-12T19:09:40.866Z,0.80
2023-03-12T19:12:15.220Z,0.70
2023-03-12T19:14:47.660Z,0.13
2023-03-12T19:17:20.482Z,0.75
2023-03-12T19:19:54.578Z,0.57
2023-03-12T19:22:27.132Z,0.33
2023-03-12T19:24:59.821Z,0.20
2023-03-12T19:27:34.160Z,0.20
2023-03-12T19:30:08.457Z,1.50
2023-03-12T19:32:44.307Z,0.38
2023-03-12T19:35:17.316Z,6.07
2023-03-12T19:37:50.684Z,0.70
2023-03-12T19:40:23.532Z,0.73
2023-03-12T19:42:58.623Z,0.45
2023-03-12T19:45:31.489Z,0.40
2023-03-12T19:48:07.530Z,0.40
2023-03-12T19:50:40.199Z,0.20
2023-03-12T19:53:13.689Z,0.75
2023-03-12T19:55:47.552Z,0.50
2023-03-12T19:58:22.369Z,0.22
2023-03-12T20:00:58.613Z,0.37
2023-03-12T20:03:33.242Z,1.38
2023-03-12T20:06:08.138Z,0.73
2023-03-12T20:08:41.032Z,1.48
2023-03-12T20:11:13.861Z,0.52
2023-03-12T20:13:48.449Z,1.30
2023-03-12T20:16:20.958Z,0.52
2023-03-12T20:18:53.853Z,0.82
2023-03-12T20:21:28.432Z,0.22
2023-03-12T20:24:02.950Z,1.42
2023-03-12T20:26:36.830Z,0.80
2023-03-12T20:29:11.424Z,0.95
2023-03-12T20:31:44.130Z,0.88
2023-03-12T20:34:17.019Z,0.45
2023-03-12T20:36:50.468Z,0.50
2023-03-12T20:39:23.174Z,0.50
2023-03-12T20:41:56.334Z,1.08
2023-03-12T20:44:30.364Z,4.70
2023-03-12T20:47:03.130Z,0.40
2023-03-12T20:49:36.205Z,0.63
2023-03-12T20:52:08.982Z,2.10
2023-03-12T20:54:41.907Z,0.95
2023-03-12T20:57:14.976Z,0.25
2023-03-12T20:59:49.250Z,0.55
2023-03-12T21:02:22.142Z,0.35
2023-03-12T21:04:54.931Z,0.70
2023-03-12T21:07:27.884Z,0.20
2023-03-12T21:10:00.316Z,0.30
2023-03-12T21:12:33.352Z,0.22
2023-03-12T21:15:09.662Z,0.73
2023-03-12T21:17:42.430Z,0.70
2023-03-12T21:20:17.742Z,0.30
2023-03-12T21:22:50.386Z,0.38
2023-03-12T21:25:24.775Z,1.35
2023-03-12T21:27:57.542Z,0.75
2023-03-12T21:30:31.736Z,0.83
2023-03-12T21:33:04.762Z,0.30
2023-03-12T21:35:37.918Z,0.20
2023-03-12T21:38:10.450Z,0.10
2023-03-12T21:40:43.640Z,0.93
2023-03-12T21:43:16.562Z,0.43
2023-03-12T21:45:50.511Z,0.75
2023-03-12T21:48:23.276Z,0.20
2023-03-12T21:50:56.170Z,0.22
2023-03-12T21:53:29.303Z,0.20
2023-03-12T21:56:03.501Z,0.37
2023-03-12T21:58:37.188Z,0.20
2023-03-12T22:01:13.485Z,0.40
2023-03-12T22:03:47.954Z,0.35
2023-03-12T22:06:20.606Z,0.20
2023-03-12T22:08:53.947Z,0.70
2023-03-12T22:11:26.797Z,2.25
2023-03-12T22:13:59.472Z,0.50
2023-03-12T22:16:33.898Z,3.55
2023-03-12T22:19:07.704Z,1.20
2023-03-12T22:21:42.873Z,0.50
2023-03-12T22:24:15.658Z,0.35
2023-03-12T22:26:48.059Z,0.10
2023-03-12T22:29:20.879Z,1.60
2023-03-12T22:31:56.398Z,0.95
2023-03-12T22:34:30.246Z,0.40
2023-03-12T22:37:03.464Z,0.30
2023-03-12T22:39:36.694Z,0.63
2023-03-12T22:42:09.505Z,0.30
2023-03-12T22:44:42.470Z,2.22
2023-03-12T22:47:16.623Z,2.93
2023-03-12T22:49:49.627Z,0.45
2023-03-12T22:52:22.099Z,0.80
2023-03-12T22:54:55.049Z,0.63
2023-03-12T22:57:28.045Z,0.20
2023-03-12T23:00:00.482Z,0.20
2023-03-12T23:02:36.655Z,1.00
2023-03-12T23:05:10.372Z,0.90
2023-03-12T23:07:43.538Z,0.70
2023-03-12T23:10:16.630Z,0.82
2023-03-12T23:12:49.183Z,0.20
2023-03-12T23:15:24.576Z,0.22
2023-03-12T23:18:03.261Z,0.68
2023-03-12T23:20:36.290Z,1.23
2023-03-12T23:23:09.036Z,0.32
2023-03-12T23:25:41.864Z,0.20
2023-03-12T23:28:14.236Z,0.32
2023-03-12T23:30:54.079Z,0.57
2023-03-12T23:33:29.651Z,0.30
2023-03-12T23:36:04.339Z,0.47
2023-03-12T23:38:37.848Z,0.40
2023-03-12T23:41:13.503Z,0.52
2023-03-12T23:43:46.466Z,3.05
2023-03-12T23:46:19.884Z,0.20
2023-03-12T23:48:55.265Z,0.30
2023-03-12T23:51:30.131Z,0.33
2023-03-12T23:54:05.747Z,0.75
2023-03-12T23:56:39.794Z,0.30
2023-03-12T23:59:12.372Z,0.30
